Thurso, Canada
Current Conditions -  °F | °C
As of 5:00 PM on Thursday 23 Oct 2014 (Local Time) from CYND Reporting Station
Overcast Overcast  
Wind Chill: 57°   Ceiling: 3500
Heat Index: 57°   Visibility: 15mi
Dew Point: 45°   Wind: 6mph
Humidity: 63%   Direction: 360°N
Pressure: 30"   Gusts: NA
Location:  45.58°N, 75.23°W
Report Text: CYND 232100Z 36005KT 15SM BKN035 OVC090 14/07 A3000 RMK SC7AC1 SLP159
Loading
Personal Weather Stations






























Interactive Weather Map New forecast layout! Learn more

10-Day Weather Forecast

Advertisements
Track Severe Weather on mobile